Time;durP1;ratioP1;P1;durP2;ratioP2;P2;SDS_P1;SDS_P2;PMS_P1;PMS_P2;Temp;Humidity;BMP_temperature;BMP_pressure;BME280_temperature;BME280_humidity;BME280_pressure;Samples;Min_cycle;Max_cycle;Signal;HPM_P1;HPM_P2
2023/06/19 00:01:47;;;;;;;19.25;12.70;;;;;;;;;;10206071;29;20070;-91
2023/06/19 00:06:48;;;;;;;17.30;13.70;;;;;;;;;;10206372;29;20043;-90
2023/06/19 00:11:49;;;;;;;20.88;13.25;;;;;;;;;;10206299;29;20589;-91
2023/06/19 00:16:50;;;;;;;21.20;13.95;;;;;;;;;;10205698;29;20030;-90
2023/06/19 00:21:56;;;;;;;17.77;12.90;;;;;;;;;;10205488;29;20055;-91
2023/06/19 00:27:02;;;;;;;20.13;14.70;;;;;;;;;;10206341;29;20091;-90
2023/06/19 00:32:03;;;;;;;21.95;14.48;;;;;;;;;;10205525;29;20056;-90
2023/06/19 00:37:04;;;;;;;22.55;16.10;;;;;;;;;;10205050;29;20035;-91
2023/06/19 00:42:05;;;;;;;25.13;16.45;;;;;;;;;;10204934;29;20035;-90
2023/06/19 00:47:06;;;;;;;25.90;16.77;;;;;;;;;;10206076;29;20452;-90
2023/06/19 00:52:08;;;;;;;23.35;15.60;;;;;;;;;;10204543;29;20134;-90
2023/06/19 00:57:09;;;;;;;21.17;15.15;;;;;;;;;;10204944;29;20067;-91
2023/06/19 01:02:10;;;;;;;21.52;15.18;;;;;;;;;;10204191;29;20731;-90
2023/06/19 01:07:15;;;;;;;22.45;15.00;;;;;;;;;;10203952;29;20372;-91
2023/06/19 01:12:23;;;;;;;20.00;14.27;;;;;;;;;;10202786;29;20047;-92
2023/06/19 01:17:24;;;;;;;21.40;14.93;;;;;;;;;;10204037;29;20035;-90
2023/06/19 01:22:32;;;;;;;20.35;14.38;;;;;;;;;;10204652;29;20027;-91
2023/06/19 01:27:33;;;;;;;20.20;14.27;;;;;;;;;;10177909;29;20027;-91
2023/06/19 01:32:42;;;;;;;22.23;14.73;;;;;;;;;;10167521;29;20044;-90
2023/06/19 01:37:44;;;;;;;22.88;15.60;;;;;;;;;;10182513;29;20539;-90
2023/06/19 01:42:46;;;;;;;22.95;15.32;;;;;;;;;;10186607;29;20067;-90
2023/06/19 01:47:47;;;;;;;19.67;15.07;;;;;;;;;;10186433;29;20032;-91
2023/06/19 01:52:48;;;;;;;20.85;15.30;;;;;;;;;;10186597;29;20043;-91
2023/06/19 01:57:49;;;;;;;24.95;15.88;;;;;;;;;;10173620;29;20042;-91
2023/06/19 02:02:50;;;;;;;24.67;16.48;;;;;;;;;;10173171;29;20392;-90
2023/06/19 02:07:51;;;;;;;19.58;13.90;;;;;;;;;;10186303;29;20098;-90
2023/06/19 02:12:52;;;;;;;24.90;16.45;;;;;;;;;;10186312;29;20074;-92
2023/06/19 02:18:02;;;;;;;24.92;15.38;;;;;;;;;;10186929;29;20823;-92
2023/06/19 02:23:03;;;;;;;21.60;15.90;;;;;;;;;;10185972;29;20436;-90
2023/06/19 02:28:04;;;;;;;23.73;15.52;;;;;;;;;;10186978;29;20068;-91
2023/06/19 02:33:05;;;;;;;23.27;15.75;;;;;;;;;;10186317;29;20094;-90
2023/06/19 02:38:06;;;;;;;22.30;16.02;;;;;;;;;;10173117;29;20059;-90
2023/06/19 02:43:07;;;;;;;25.05;16.25;;;;;;;;;;10185389;29;20456;-91
2023/06/19 02:48:08;;;;;;;24.23;16.00;;;;;;;;;;10185816;29;20669;-89
2023/06/19 02:53:11;;;;;;;28.00;17.63;;;;;;;;;;10185427;29;20078;-91
2023/06/19 02:58:12;;;;;;;22.38;15.68;;;;;;;;;;10189084;29;20452;-90
2023/06/19 03:03:13;;;;;;;22.13;16.27;;;;;;;;;;10167872;29;20040;-91
2023/06/19 03:08:14;;;;;;;28.90;18.40;;;;;;;;;;10176445;29;20039;-92
2023/06/19 03:13:15;;;;;;;32.42;21.25;;;;;;;;;;10188162;29;20066;-90
2023/06/19 03:18:16;;;;;;;34.15;22.63;;;;;;;;;;10192684;29;20452;-91
2023/06/19 03:23:17;;;;;;;33.85;21.15;;;;;;;;;;10193495;29;20024;-92
2023/06/19 03:28:18;;;;;;;35.58;20.77;;;;;;;;;;10195317;29;20059;-91
2023/06/19 03:33:19;;;;;;;30.42;19.27;;;;;;;;;;10193842;29;20063;-91
2023/06/19 03:38:20;;;;;;;24.80;17.92;;;;;;;;;;10181874;29;20036;-92
2023/06/19 03:43:21;;;;;;;27.85;19.15;;;;;;;;;;10191855;29;20082;-92
2023/06/19 03:48:23;;;;;;;27.95;18.65;;;;;;;;;;10182626;29;20038;-91
2023/06/19 03:53:24;;;;;;;25.35;17.23;;;;;;;;;;10174235;29;20046;-91
2023/06/19 03:58:27;;;;;;;25.48;17.02;;;;;;;;;;10172589;29;20038;-92
2023/06/19 04:03:28;;;;;;;27.67;17.48;;;;;;;;;;10173158;29;20032;-91
2023/06/19 04:08:29;;;;;;;25.45;16.95;;;;;;;;;;10175738;29;20499;-91
2023/06/19 04:13:30;;;;;;;31.05;19.77;;;;;;;;;;10179415;29;20492;-91
2023/06/19 04:18:31;;;;;;;27.00;16.58;;;;;;;;;;10191392;29;20036;-90
2023/06/19 04:23:32;;;;;;;24.73;19.02;;;;;;;;;;10191627;29;20050;-91
2023/06/19 04:28:34;;;;;;;25.67;18.13;;;;;;;;;;10153214;29;20092;-90
2023/06/19 04:33:35;;;;;;;26.08;19.08;;;;;;;;;;10164667;29;20047;-90
2023/06/19 04:38:36;;;;;;;30.05;21.48;;;;;;;;;;10167044;29;20074;-91
2023/06/19 04:43:37;;;;;;;27.55;18.45;;;;;;;;;;10186171;29;20047;-90
2023/06/19 04:48:39;;;;;;;28.23;18.83;;;;;;;;;;10155545;29;20629;-91
2023/06/19 04:53:40;;;;;;;29.75;20.50;;;;;;;;;;10189291;29;20605;-90
2023/06/19 04:58:48;;;;;;;27.90;19.65;;;;;;;;;;10155120;29;20032;-90
2023/06/19 05:03:49;;;;;;;31.20;21.17;;;;;;;;;;10159125;29;20062;-90
2023/06/19 05:08:51;;;;;;;29.42;20.38;;;;;;;;;;10189061;29;20042;-91
2023/06/19 05:13:52;;;;;;;26.42;20.15;;;;;;;;;;10187332;29;20047;-91
2023/06/19 05:18:53;;;;;;;30.58;21.17;;;;;;;;;;10187043;29;20035;-90
2023/06/19 05:23:54;;;;;;;30.58;20.98;;;;;;;;;;10164416;29;20123;-90
2023/06/19 05:28:55;;;;;;;27.23;18.23;;;;;;;;;;10164798;29;20103;-91
2023/06/19 05:33:58;;;;;;;26.08;19.77;;;;;;;;;;10164108;29;20040;-92
2023/06/19 05:38:59;;;;;;;33.70;21.77;;;;;;;;;;10175477;29;20031;-92
2023/06/19 05:44:03;;;;;;;27.23;19.73;;;;;;;;;;10160716;29;20369;-91
2023/06/19 05:49:04;;;;;;;31.60;20.00;;;;;;;;;;10187502;29;20119;-91
2023/06/19 05:54:05;;;;;;;25.13;18.13;;;;;;;;;;10180537;29;20091;-90
2023/06/19 05:59:06;;;;;;;22.30;15.95;;;;;;;;;;10174023;29;20444;-91
2023/06/19 06:04:08;;;;;;;23.02;16.77;;;;;;;;;;10181272;29;20079;-91
2023/06/19 06:09:51;;;;;;;;;;;;;;;;;;;;;
2023/06/19 06:14:52;;;;;;;28.42;17.65;;;;;;;;;;10161620;29;20051;-91
2023/06/19 06:19:53;;;;;;;23.52;16.25;;;;;;;;;;10190525;29;20039;-90
2023/06/19 06:24:54;;;;;;;22.35;16.17;;;;;;;;;;10172019;29;20040;-90
2023/06/19 06:29:59;;;;;;;23.00;14.77;;;;;;;;;;10165498;29;20060;-90
2023/06/19 06:35:00;;;;;;;21.98;14.65;;;;;;;;;;10176890;29;20535;-92
2023/06/19 06:40:01;;;;;;;21.02;15.13;;;;;;;;;;10185497;29;20079;-90
2023/06/19 06:45:02;;;;;;;22.80;13.48;;;;;;;;;;10173762;29;20035;-90
2023/06/19 06:50:03;;;;;;;18.90;12.50;;;;;;;;;;10192601;29;20063;-88
2023/06/19 06:55:05;;;;;;;18.90;12.57;;;;;;;;;;10192769;29;20050;-89
2023/06/19 07:00:09;;;;;;;20.60;12.93;;;;;;;;;;10192335;29;20376;-90
2023/06/19 07:05:10;;;;;;;15.60;10.43;;;;;;;;;;10193006;29;20028;-89
2023/06/19 07:10:12;;;;;;;13.02;9.75;;;;;;;;;;10194102;29;20028;-91
2023/06/19 07:15:13;;;;;;;11.27;8.93;;;;;;;;;;10193470;29;20495;-90
2023/06/19 07:20:15;;;;;;;11.82;8.70;;;;;;;;;;10193438;29;20051;-90
2023/06/19 07:25:16;;;;;;;10.13;7.93;;;;;;;;;;10192153;29;20521;-89
2023/06/19 07:30:17;;;;;;;13.65;9.27;;;;;;;;;;10192177;29;20056;-90
2023/06/19 07:35:18;;;;;;;10.82;8.57;;;;;;;;;;10191994;29;20635;-90
2023/06/19 07:40:19;;;;;;;8.82;6.97;;;;;;;;;;10188541;29;20031;-90
2023/06/19 07:45:22;;;;;;;7.28;6.25;;;;;;;;;;10170456;29;20035;-90
2023/06/19 07:50:23;;;;;;;7.03;5.82;;;;;;;;;;10191320;29;20527;-90
2023/06/19 07:55:24;;;;;;;7.38;6.68;;;;;;;;;;10191178;29;20502;-91
2023/06/19 08:00:25;;;;;;;8.98;6.82;;;;;;;;;;10190826;29;20480;-88
2023/06/19 08:05:27;;;;;;;8.65;6.57;;;;;;;;;;10181354;29;20043;-89
2023/06/19 08:10:28;;;;;;;6.43;5.72;;;;;;;;;;10165592;29;20095;-89
2023/06/19 08:15:29;;;;;;;7.25;6.47;;;;;;;;;;10179662;29;20126;-89
2023/06/19 08:20:30;;;;;;;5.43;4.68;;;;;;;;;;10191109;29;20074;-90
2023/06/19 08:25:31;;;;;;;5.65;5.07;;;;;;;;;;10178337;29;20036;-89
2023/06/19 08:30:35;;;;;;;6.90;5.78;;;;;;;;;;10179368;29;20500;-89
2023/06/19 08:35:37;;;;;;;5.30;4.72;;;;;;;;;;10200465;29;20051;-89
2023/06/19 08:40:38;;;;;;;5.93;5.32;;;;;;;;;;10202450;29;20064;-89
2023/06/19 08:45:39;;;;;;;6.35;5.68;;;;;;;;;;10197987;29;20032;-88
2023/06/19 08:50:41;;;;;;;6.25;5.35;;;;;;;;;;10188070;29;20106;-90
2023/06/19 08:55:42;;;;;;;4.97;4.47;;;;;;;;;;10193078;29;20036;-89
2023/06/19 09:00:48;;;;;;;4.90;4.00;;;;;;;;;;10194559;29;20071;-89
2023/06/19 09:05:50;;;;;;;5.38;4.75;;;;;;;;;;10179030;29;20498;-89
2023/06/19 09:11:04;;;;;;;6.38;4.65;;;;;;;;;;10206397;29;20351;-90
2023/06/19 09:16:09;;;;;;;6.03;5.40;;;;;;;;;;10205440;29;20043;-88
2023/06/19 09:21:21;;;;;;;6.28;4.57;;;;;;;;;;10204493;29;20056;-91
2023/06/19 09:26:25;;;;;;;7.32;5.18;;;;;;;;;;10205255;29;20071;-89
2023/06/19 09:31:33;;;;;;;5.88;5.30;;;;;;;;;;10203222;29;20408;-89
2023/06/19 09:36:35;;;;;;;6.53;5.68;;;;;;;;;;10192240;29;20024;-91
2023/06/19 09:41:37;;;;;;;6.15;5.50;;;;;;;;;;10205378;29;20039;-88
2023/06/19 09:46:39;;;;;;;5.95;5.32;;;;;;;;;;10190398;29;20061;-89
2023/06/19 09:51:42;;;;;;;6.55;5.70;;;;;;;;;;10188639;29;20047;-90
2023/06/19 09:56:43;;;;;;;7.28;5.45;;;;;;;;;;10194824;29;20063;-90
2023/06/19 10:01:45;;;;;;;4.88;3.92;;;;;;;;;;10202115;29;20521;-89
2023/06/19 10:06:48;;;;;;;5.60;5.10;;;;;;;;;;10202488;29;20038;-90
2023/06/19 10:11:51;;;;;;;4.28;3.88;;;;;;;;;;10203567;29;20039;-89
2023/06/19 10:16:52;;;;;;;5.03;4.57;;;;;;;;;;10202534;29;20472;-89
2023/06/19 10:21:54;;;;;;;5.55;4.88;;;;;;;;;;10203128;29;20032;-90
2023/06/19 10:27:02;;;;;;;5.80;5.30;;;;;;;;;;10188588;29;20043;-89
2023/06/19 10:32:03;;;;;;;5.93;4.50;;;;;;;;;;10212389;29;20492;-89
2023/06/19 10:37:04;;;;;;;4.25;3.85;;;;;;;;;;10181556;29;20035;-87
2023/06/19 10:42:07;;;;;;;6.63;4.00;;;;;;;;;;10210657;29;20114;-87
2023/06/19 10:47:08;;;;;;;5.20;4.20;;;;;;;;;;10193074;29;20063;-87
2023/06/19 10:52:09;;;;;;;4.30;3.60;;;;;;;;;;10191945;29;20644;-87
2023/06/19 10:57:10;;;;;;;5.25;4.15;;;;;;;;;;10192525;29;20577;-88
2023/06/19 11:02:11;;;;;;;5.57;3.75;;;;;;;;;;10192836;29;20035;-89
2023/06/19 11:07:12;;;;;;;4.43;3.90;;;;;;;;;;10192460;29;20412;-86
2023/06/19 11:12:19;;;;;;;3.95;3.55;;;;;;;;;;10209981;29;20392;-86
2023/06/19 11:17:23;;;;;;;4.20;3.80;;;;;;;;;;10192572;29;20487;-88
2023/06/19 11:22:34;;;;;;;4.38;4.03;;;;;;;;;;10192453;29;20059;-89
2023/06/19 11:27:37;;;;;;;5.85;4.22;;;;;;;;;;10208531;29;20035;-89
2023/06/19 11:32:41;;;;;;;5.78;4.72;;;;;;;;;;10190963;29;20035;-88
2023/06/19 11:37:47;;;;;;;4.53;4.13;;;;;;;;;;10190953;29;20485;-89
2023/06/19 11:42:57;;;;;;;5.18;4.18;;;;;;;;;;10191147;29;20040;-88
2023/06/19 11:47:58;;;;;;;4.07;3.67;;;;;;;;;;10190189;29;20048;-89
2023/06/19 11:53:01;;;;;;;4.72;4.32;;;;;;;;;;10190080;29;20046;-88
2023/06/19 11:58:02;;;;;;;5.85;4.65;;;;;;;;;;10207224;29;20365;-87
2023/06/19 12:03:03;;;;;;;5.25;4.45;;;;;;;;;;10207232;29;20023;-88
2023/06/19 12:08:05;;;;;;;5.82;4.13;;;;;;;;;;10190085;29;20043;-88
2023/06/19 12:13:06;;;;;;;5.05;4.45;;;;;;;;;;10206647;29;20032;-88
2023/06/19 12:18:07;;;;;;;5.93;4.63;;;;;;;;;;10206890;29;20704;-88
2023/06/19 12:23:08;;;;;;;4.75;4.35;;;;;;;;;;10189157;29;20027;-90
2023/06/19 12:28:11;;;;;;;4.65;4.25;;;;;;;;;;10189149;29;20060;-90
2023/06/19 12:33:12;;;;;;;5.30;4.60;;;;;;;;;;10188633;29;20069;-88
2023/06/19 12:38:13;;;;;;;5.72;5.15;;;;;;;;;;10188576;29;20028;-88
2023/06/19 12:43:14;;;;;;;5.25;4.80;;;;;;;;;;10149727;29;20075;-90
2023/06/19 12:48:15;;;;;;;5.20;4.70;;;;;;;;;;10164731;29;20075;-87
2023/06/19 12:53:16;;;;;;;5.82;5.20;;;;;;;;;;10188188;29;20553;-88
2023/06/19 12:58:17;;;;;;;5.20;4.80;;;;;;;;;;10187540;29;20027;-88
2023/06/19 13:03:18;;;;;;;5.00;4.47;;;;;;;;;;10187519;29;20027;-88
2023/06/19 13:08:19;;;;;;;4.68;4.22;;;;;;;;;;10187410;29;20172;-90
2023/06/19 13:13:20;;;;;;;5.30;4.82;;;;;;;;;;10187698;29;20222;-88
2023/06/19 13:18:21;;;;;;;5.30;4.80;;;;;;;;;;10187274;29;20120;-88
2023/06/19 13:23:22;;;;;;;5.30;4.80;;;;;;;;;;10187348;29;20026;-88
2023/06/19 13:28:23;;;;;;;5.97;5.38;;;;;;;;;;10187171;29;20106;-89
2023/06/19 13:33:25;;;;;;;5.47;4.95;;;;;;;;;;10186495;29;20044;-87
2023/06/19 13:38:26;;;;;;;6.18;4.90;;;;;;;;;;10186589;29;20066;-87
2023/06/19 13:43:32;;;;;;;5.80;5.30;;;;;;;;;;10174249;29;20127;-92
2023/06/19 13:48:33;;;;;;;6.05;5.47;;;;;;;;;;10186411;29;20046;-88
2023/06/19 13:53:34;;;;;;;6.20;4.93;;;;;;;;;;10172520;29;20043;-87
2023/06/19 13:58:35;;;;;;;6.43;5.82;;;;;;;;;;10203545;29;20662;-87
2023/06/19 14:03:37;;;;;;;7.72;5.97;;;;;;;;;;10203140;29;20020;-88
2023/06/19 14:08:39;;;;;;;6.53;5.93;;;;;;;;;;10203761;29;20028;-88
2023/06/19 14:13:40;;;;;;;8.40;5.82;;;;;;;;;;10185865;29;20075;-89
2023/06/19 14:18:41;;;;;;;7.00;5.97;;;;;;;;;;10203116;29;20031;-88
2023/06/19 14:23:44;;;;;;;6.50;5.65;;;;;;;;;;10185699;29;20066;-89
2023/06/19 14:28:45;;;;;;;6.03;5.43;;;;;;;;;;10185652;29;20051;-88
2023/06/19 14:33:46;;;;;;;5.90;5.30;;;;;;;;;;10185513;29;20031;-88
2023/06/19 14:38:47;;;;;;;6.50;5.53;;;;;;;;;;10184889;29;20143;-89
2023/06/19 14:43:48;;;;;;;7.53;5.97;;;;;;;;;;10185441;29;20680;-88
2023/06/19 14:48:49;;;;;;;6.65;5.95;;;;;;;;;;10172363;29;20103;-88
2023/06/19 14:53:50;;;;;;;6.45;5.82;;;;;;;;;;10184761;29;20067;-87
2023/06/19 14:58:51;;;;;;;6.38;5.78;;;;;;;;;;10184741;29;20032;-88
2023/06/19 15:03:52;;;;;;;6.55;5.90;;;;;;;;;;10184638;29;20035;-88
2023/06/19 15:08:53;;;;;;;7.20;5.10;;;;;;;;;;10204094;29;20059;-89
2023/06/19 15:13:54;;;;;;;5.78;5.18;;;;;;;;;;10191578;29;20039;-88
2023/06/19 15:18:55;;;;;;;9.73;5.35;;;;;;;;;;10192124;29;20059;-87
2023/06/19 15:23:56;;;;;;;6.18;5.57;;;;;;;;;;10191242;29;20391;-88
2023/06/19 15:28:57;;;;;;;12.07;5.53;;;;;;;;;;10184677;29;20066;-88
2023/06/19 15:33:58;;;;;;;9.32;6.75;;;;;;;;;;10185875;29;20080;-87
2023/06/19 15:38:59;;;;;;;5.60;5.10;;;;;;;;;;10183483;29;20053;-88
2023/06/19 15:44:00;;;;;;;5.82;5.22;;;;;;;;;;10190598;29;20039;-89
2023/06/19 15:49:01;;;;;;;5.70;5.20;;;;;;;;;;10190748;29;20043;-88
2023/06/19 15:54:02;;;;;;;6.45;5.68;;;;;;;;;;10190129;29;20135;-89
2023/06/19 15:59:04;;;;;;;5.80;5.13;;;;;;;;;;10190194;29;20028;-90
2023/06/19 16:04:05;;;;;;;9.00;6.18;;;;;;;;;;10190378;29;20044;-89
2023/06/19 16:09:06;;;;;;;8.25;5.72;;;;;;;;;;10190061;29;20090;-88
2023/06/19 16:14:07;;;;;;;6.45;5.60;;;;;;;;;;10189704;29;20070;-87
2023/06/19 16:19:08;;;;;;;6.63;6.00;;;;;;;;;;10189432;29;20043;-88
2023/06/19 16:24:09;;;;;;;6.32;5.72;;;;;;;;;;10189039;29;20030;-89
2023/06/19 16:29:13;;;;;;;6.80;5.75;;;;;;;;;;10189405;29;20052;-87
2023/06/19 16:34:14;;;;;;;6.07;5.47;;;;;;;;;;10189368;29;20538;-87
2023/06/19 16:39:17;;;;;;;6.47;5.28;;;;;;;;;;10197102;29;20167;-89
2023/06/19 16:44:18;;;;;;;6.55;5.43;;;;;;;;;;10201830;29;20566;-88
2023/06/19 16:49:20;;;;;;;6.18;5.53;;;;;;;;;;10188673;29;20032;-87
2023/06/19 16:54:21;;;;;;;6.15;5.55;;;;;;;;;;10188431;29;20043;-88
2023/06/19 16:59:22;;;;;;;6.38;5.63;;;;;;;;;;10188241;29;20043;-87
2023/06/19 17:04:24;;;;;;;7.75;6.15;;;;;;;;;;10187976;29;20063;-87
2023/06/19 17:09:25;;;;;;;8.05;6.28;;;;;;;;;;10187677;29;20050;-88
2023/06/19 17:14:26;;;;;;;6.75;6.05;;;;;;;;;;10187273;29;20038;-89
2023/06/19 17:19:27;;;;;;;6.78;6.07;;;;;;;;;;10205177;29;20038;-87
2023/06/19 17:24:28;;;;;;;7.25;5.68;;;;;;;;;;10187394;29;20023;-88
2023/06/19 17:29:29;;;;;;;7.88;6.65;;;;;;;;;;10178323;29;20366;-87
2023/06/19 17:34:31;;;;;;;7.05;6.20;;;;;;;;;;10182633;29;20710;-87
2023/06/19 17:39:32;;;;;;;6.70;5.95;;;;;;;;;;10186300;29;20040;-88
2023/06/19 17:44:34;;;;;;;6.82;6.13;;;;;;;;;;10186537;29;20038;-87
2023/06/19 17:49:35;;;;;;;7.47;6.68;;;;;;;;;;10203708;29;20111;-87
2023/06/19 17:54:36;;;;;;;6.88;6.18;;;;;;;;;;10186111;29;20432;-86
2023/06/19 17:59:37;;;;;;;6.55;5.68;;;;;;;;;;10186238;29;20038;-87
2023/06/19 18:04:38;;;;;;;7.35;6.65;;;;;;;;;;10185908;29;20403;-87
2023/06/19 18:09:46;;;;;;;7.90;6.00;;;;;;;;;;10185955;29;20027;-89
2023/06/19 18:14:47;;;;;;;7.32;6.07;;;;;;;;;;10185953;29;20036;-89
2023/06/19 18:19:48;;;;;;;7.72;6.22;;;;;;;;;;10185455;29;20684;-88
2023/06/19 18:24:49;;;;;;;7.38;6.30;;;;;;;;;;10185934;29;20617;-87
2023/06/19 18:29:50;;;;;;;7.78;6.40;;;;;;;;;;10202753;29;20055;-86
2023/06/19 18:34:51;;;;;;;7.10;6.35;;;;;;;;;;10171530;29;20043;-88
2023/06/19 18:39:52;;;;;;;7.40;6.10;;;;;;;;;;10148216;29;20421;-86
2023/06/19 18:44:53;;;;;;;7.35;6.15;;;;;;;;;;10189230;29;20078;-88
2023/06/19 18:49:54;;;;;;;13.27;6.72;;;;;;;;;;10178247;29;20067;-87
2023/06/19 18:54:55;;;;;;;7.82;6.57;;;;;;;;;;10161001;29;20040;-90
2023/06/19 18:59:57;;;;;;;10.48;7.70;;;;;;;;;;10195577;29;20036;-89
2023/06/19 19:04:59;;;;;;;9.40;7.00;;;;;;;;;;10191998;29;20058;-88
2023/06/19 19:10:00;;;;;;;9.23;6.93;;;;;;;;;;10192211;29;20028;-87
2023/06/19 19:15:01;;;;;;;13.82;9.50;;;;;;;;;;10181273;29;20050;-88
2023/06/19 19:20:05;;;;;;;8.05;7.07;;;;;;;;;;10177741;29;20518;-88
2023/06/19 19:25:07;;;;;;;9.90;7.30;;;;;;;;;;10191789;29;20539;-87
2023/06/19 19:30:08;;;;;;;8.80;7.63;;;;;;;;;;10187622;29;20237;-87
2023/06/19 19:35:10;;;;;;;11.70;7.53;;;;;;;;;;10174605;29;20055;-86
2023/06/19 19:40:11;;;;;;;12.77;10.30;;;;;;;;;;10208828;29;20032;-88
2023/06/19 19:45:12;;;;;;;14.20;10.15;;;;;;;;;;10190583;29;20123;-87
2023/06/19 19:50:13;;;;;;;14.38;10.25;;;;;;;;;;10190932;29;20028;-88
2023/06/19 19:55:14;;;;;;;14.25;10.10;;;;;;;;;;10189939;29;20133;-87
2023/06/19 20:00:15;;;;;;;14.90;10.57;;;;;;;;;;10190683;29;20032;-88
2023/06/19 20:05:16;;;;;;;12.85;9.40;;;;;;;;;;10166486;29;20484;-88
2023/06/19 20:10:18;;;;;;;13.52;9.25;;;;;;;;;;10173800;29;20098;-87
2023/06/19 20:15:19;;;;;;;11.85;9.40;;;;;;;;;;10173164;29;20040;-88
2023/06/19 20:20:20;;;;;;;12.10;9.77;;;;;;;;;;10189687;29;20027;-87
2023/06/19 20:25:21;;;;;;;13.48;10.65;;;;;;;;;;10189888;29;20028;-88
2023/06/19 20:30:23;;;;;;;13.60;10.55;;;;;;;;;;10188932;29;20052;-88
2023/06/19 20:35:24;;;;;;;14.80;11.25;;;;;;;;;;10189382;29;20099;-88
2023/06/19 20:40:27;;;;;;;12.13;9.43;;;;;;;;;;10188677;29;20035;-87
2023/06/19 20:45:28;;;;;;;16.73;10.95;;;;;;;;;;10206061;29;20122;-88
2023/06/19 20:50:29;;;;;;;13.35;9.80;;;;;;;;;;10205766;29;20060;-87
2023/06/19 20:55:30;;;;;;;12.88;9.73;;;;;;;;;;10188020;29;20047;-88
2023/06/19 21:00:31;;;;;;;13.07;9.43;;;;;;;;;;10187813;29;20069;-88
2023/06/19 21:05:32;;;;;;;13.02;10.15;;;;;;;;;;10187283;29;20118;-88
2023/06/19 21:10:33;;;;;;;12.40;9.23;;;;;;;;;;10188104;29;20130;-87
2023/06/19 21:15:38;;;;;;;13.80;9.57;;;;;;;;;;10204691;29;20087;-87
2023/06/19 21:20:39;;;;;;;12.67;9.13;;;;;;;;;;10187020;29;20043;-87
2023/06/19 21:25:40;;;;;;;10.70;9.00;;;;;;;;;;10187739;29;20496;-87
2023/06/19 21:30:41;;;;;;;14.20;9.35;;;;;;;;;;10204604;29;20051;-87
2023/06/19 21:35:42;;;;;;;13.77;9.20;;;;;;;;;;10188683;29;20034;-87
2023/06/19 21:40:43;;;;;;;11.13;9.05;;;;;;;;;;10174019;29;20408;-89
2023/06/19 21:45:44;;;;;;;15.02;9.63;;;;;;;;;;10173791;29;20135;-89
2023/06/19 21:50:45;;;;;;;12.07;9.30;;;;;;;;;;10185250;29;20203;-89
2023/06/19 21:55:46;;;;;;;12.27;10.45;;;;;;;;;;10186790;29;20823;-89
2023/06/19 22:00:47;;;;;;;13.63;10.68;;;;;;;;;;10160734;29;20042;-88
2023/06/19 22:05:48;;;;;;;14.40;10.68;;;;;;;;;;10164128;29;20118;-89
2023/06/19 22:10:50;;;;;;;12.93;10.70;;;;;;;;;;10148765;29;20608;-90
2023/06/19 22:15:52;;;;;;;13.20;10.57;;;;;;;;;;10186483;29;20075;-88
2023/06/19 22:20:53;;;;;;;14.80;10.50;;;;;;;;;;10159818;29;20175;-90
2023/06/19 22:25:54;;;;;;;13.27;10.45;;;;;;;;;;10186303;29;20027;-89
2023/06/19 22:30:55;;;;;;;16.15;11.50;;;;;;;;;;10188690;29;20594;-88
2023/06/19 22:35:56;;;;;;;12.93;10.60;;;;;;;;;;10199645;29;20504;-88
2023/06/19 22:40:57;;;;;;;11.88;10.18;;;;;;;;;;10199760;29;20040;-90
2023/06/19 22:45:58;;;;;;;13.98;10.68;;;;;;;;;;10187276;29;20131;-88
2023/06/19 22:50:59;;;;;;;13.57;11.20;;;;;;;;;;10187412;29;20077;-89
2023/06/19 22:56:00;;;;;;;16.02;12.27;;;;;;;;;;10199622;29;20134;-90
2023/06/19 23:01:01;;;;;;;13.93;11.18;;;;;;;;;;10186391;29;20123;-90
2023/06/19 23:06:03;;;;;;;13.85;11.45;;;;;;;;;;10199723;29;20118;-90
2023/06/19 23:11:11;;;;;;;16.20;11.02;;;;;;;;;;10199288;29;20035;-89
2023/06/19 23:16:12;;;;;;;13.48;10.50;;;;;;;;;;10186296;29;20039;-88
2023/06/19 23:21:13;;;;;;;17.52;11.93;;;;;;;;;;10198612;29;20038;-89
2023/06/19 23:26:14;;;;;;;15.45;12.13;;;;;;;;;;10198606;29;20040;-89
2023/06/19 23:31:20;;;;;;;16.25;11.85;;;;;;;;;;10142407;29;1126424;-90
2023/06/19 23:36:21;;;;;;;17.05;11.93;;;;;;;;;;10193574;29;20459;-88
2023/06/19 23:41:22;;;;;;;13.98;11.32;;;;;;;;;;10207761;29;20120;-89
2023/06/19 23:46:23;;;;;;;15.90;12.40;;;;;;;;;;10207062;29;20115;-89
2023/06/19 23:51:24;;;;;;;17.40;12.65;;;;;;;;;;10207108;29;20127;-89
2023/06/19 23:56:25;;;;;;;15.18;11.95;;;;;;;;;;10207106;29;20028;-90
